createdAt,value
2018-12-10T00:00:20.221Z,12.10
2018-12-10T00:01:20.216Z,11.60
2018-12-10T00:02:20.207Z,14.30
2018-12-10T00:03:20.197Z,12.40
2018-12-10T00:04:20.190Z,12.80
2018-12-10T00:05:20.191Z,13.20
2018-12-10T00:06:20.171Z,11.80
2018-12-10T00:07:20.168Z,13.20
2018-12-10T00:08:20.160Z,15.00
2018-12-10T00:09:20.152Z,12.30
2018-12-10T00:10:20.142Z,13.00
2018-12-10T00:11:20.133Z,12.50
2018-12-10T00:12:20.129Z,13.90
2018-12-10T00:13:20.119Z,14.80
2018-12-10T00:14:20.110Z,11.80
2018-12-10T00:15:20.100Z,13.80
2018-12-10T00:16:20.093Z,12.40
2018-12-10T00:17:20.090Z,11.70
2018-12-10T00:18:20.079Z,10.80
2018-12-10T00:19:20.070Z,14.10
2018-12-10T00:20:20.059Z,11.60
2018-12-10T00:21:20.056Z,12.70
2018-12-10T00:22:20.067Z,12.50
2018-12-10T00:23:20.043Z,13.70
2018-12-10T00:24:20.035Z,13.90
2018-12-10T00:25:20.024Z,9.50
2018-12-10T00:26:20.012Z,12.50
2018-12-10T00:27:20.005Z,11.50
2018-12-10T00:28:19.996Z,12.10
2018-12-10T00:29:19.988Z,12.40
2018-12-10T00:30:19.984Z,10.50
2018-12-10T00:31:19.972Z,13.90
2018-12-10T00:32:19.971Z,15.20
2018-12-10T00:33:19.956Z,14.00
2018-12-10T00:34:19.948Z,13.60
2018-12-10T00:35:19.940Z,13.20
2018-12-10T00:36:19.932Z,13.40
2018-12-10T00:37:19.925Z,14.40
2018-12-10T00:38:19.917Z,10.70
2018-12-10T00:39:19.908Z,12.10
2018-12-10T00:40:19.896Z,14.50
2018-12-10T00:41:19.894Z,14.20
2018-12-10T00:42:19.883Z,13.50
2018-12-10T00:43:19.873Z,13.30
2018-12-10T00:44:19.867Z,13.40
2018-12-10T00:45:19.858Z,12.60
2018-12-10T00:46:19.853Z,13.00
2018-12-10T00:47:19.842Z,13.90
2018-12-10T00:48:19.840Z,11.80
2018-12-10T00:49:19.826Z,13.30
2018-12-10T00:50:19.816Z,12.40
2018-12-10T00:51:19.809Z,14.80
2018-12-10T00:52:19.801Z,12.60
2018-12-10T00:53:19.801Z,10.40
2018-12-10T00:54:19.785Z,11.10
2018-12-10T00:55:19.780Z,9.50
2018-12-10T00:56:19.767Z,12.30
2018-12-10T00:57:19.759Z,14.00
2018-12-10T00:58:19.750Z,13.60
2018-12-10T00:59:19.744Z,8.50
2018-12-10T01:00:19.735Z,9.20
2018-12-10T01:01:19.727Z,13.40
2018-12-10T01:02:19.725Z,12.00
2018-12-10T01:03:19.707Z,9.00
2018-12-10T01:04:19.797Z,10.70
2018-12-10T01:05:19.692Z,11.80
2018-12-10T01:06:19.685Z,10.20
2018-12-10T01:07:19.680Z,11.00
2018-12-10T01:08:19.669Z,10.40
2018-12-10T01:09:19.664Z,11.30
2018-12-10T01:10:19.650Z,11.60
2018-12-10T01:11:19.646Z,9.60
2018-12-10T01:12:19.634Z,10.90
2018-12-10T01:13:19.627Z,12.50
2018-12-10T01:14:19.618Z,12.00
2018-12-10T01:15:19.611Z,12.20
2018-12-10T01:16:19.605Z,9.10
2018-12-10T01:17:19.595Z,14.30
2018-12-10T01:18:19.587Z,11.00
2018-12-10T01:19:19.576Z,10.30
2018-12-10T01:20:19.569Z,12.00
2018-12-10T01:21:19.562Z,11.80
2018-12-10T01:22:19.554Z,8.50
2018-12-10T01:23:19.545Z,10.30
2018-12-10T01:24:19.536Z,11.50
2018-12-10T01:25:19.525Z,11.10
2018-12-10T01:26:19.516Z,9.20
2018-12-10T01:27:19.511Z,9.90
2018-12-10T01:28:19.503Z,13.50
2018-12-10T01:29:19.495Z,10.40
2018-12-10T01:30:19.488Z,10.90
2018-12-10T01:31:19.478Z,11.80
2018-12-10T01:32:19.471Z,12.10
2018-12-10T01:33:19.464Z,9.30
2018-12-10T01:34:19.456Z,9.90
2018-12-10T01:35:19.442Z,10.50
2018-12-10T01:36:19.436Z,10.10
2018-12-10T01:37:19.428Z,13.20
2018-12-10T01:38:19.416Z,9.90
2018-12-10T01:39:19.406Z,13.10
2018-12-10T01:40:19.399Z,13.70
2018-12-10T01:41:19.394Z,12.50
2018-12-10T01:42:19.385Z,12.60
2018-12-10T01:43:19.377Z,10.90
2018-12-10T01:44:19.370Z,10.70
2018-12-10T01:45:19.389Z,12.10
2018-12-10T01:46:19.352Z,13.40
2018-12-10T01:47:19.341Z,14.90
2018-12-10T01:48:19.335Z,10.60
2018-12-10T01:49:19.327Z,12.90
2018-12-10T01:50:19.319Z,13.30
2018-12-10T01:51:19.317Z,13.60
2018-12-10T01:52:19.307Z,12.50
2018-12-10T01:53:19.292Z,14.40
2018-12-10T01:54:19.281Z,14.20
2018-12-10T01:55:19.275Z,13.20
2018-12-10T01:56:19.266Z,11.90
2018-12-10T01:57:19.258Z,17.30
2018-12-10T01:58:20.213Z,12.40
2018-12-10T01:59:19.240Z,18.40
2018-12-10T02:00:19.233Z,14.10
2018-12-10T02:01:19.223Z,13.40
2018-12-10T02:02:19.215Z,13.50
2018-12-10T02:03:19.211Z,15.30
2018-12-10T02:04:19.197Z,13.50
2018-12-10T02:05:19.193Z,16.00
2018-12-10T02:06:19.179Z,13.90
2018-12-10T02:07:19.172Z,16.20
2018-12-10T02:08:19.164Z,17.60
2018-12-10T02:09:19.156Z,14.10
2018-12-10T02:10:19.147Z,16.50
2018-12-10T02:11:19.138Z,12.80
2018-12-10T02:12:19.134Z,13.00
2018-12-10T02:13:19.120Z,15.60
2018-12-10T02:14:19.113Z,17.30
2018-12-10T02:15:19.103Z,14.80
2018-12-10T02:16:19.096Z,14.80
2018-12-10T02:17:19.090Z,13.90
2018-12-10T02:18:19.074Z,14.30
2018-12-10T02:19:19.077Z,15.50
2018-12-10T02:20:19.061Z,14.90
2018-12-10T02:21:19.057Z,16.40
2018-12-10T02:22:19.048Z,14.50
2018-12-10T02:23:19.045Z,16.50
2018-12-10T02:24:19.030Z,17.30
2018-12-10T02:25:19.014Z,15.80
2018-12-10T02:26:19.014Z,13.10
2018-12-10T02:27:19.001Z,15.70
2018-12-10T02:28:18.993Z,16.10
2018-12-10T02:29:18.984Z,18.00
2018-12-10T02:30:18.976Z,17.30
2018-12-10T02:31:18.978Z,18.10
2018-12-10T02:32:18.959Z,17.70
2018-12-10T02:33:18.951Z,16.70
2018-12-10T02:34:18.944Z,16.20
2018-12-10T02:35:18.932Z,17.40
2018-12-10T02:36:18.926Z,16.90
2018-12-10T02:37:19.004Z,17.40
2018-12-10T02:38:18.910Z,18.30
2018-12-10T02:39:18.901Z,15.20
2018-12-10T02:40:18.891Z,16.40
2018-12-10T02:41:18.884Z,16.20
2018-12-10T02:42:18.873Z,15.30
2018-12-10T02:43:18.866Z,17.30
2018-12-10T02:44:18.859Z,14.60
2018-12-10T02:45:18.847Z,15.20
2018-12-10T02:46:18.843Z,15.80
2018-12-10T02:47:18.839Z,15.40
2018-12-10T02:48:18.823Z,14.60
2018-12-10T02:49:18.815Z,12.60
2018-12-10T02:50:18.812Z,14.60
2018-12-10T02:51:18.796Z,14.10
2018-12-10T02:52:18.790Z,11.30
2018-12-10T02:53:18.782Z,15.00
2018-12-10T02:54:18.773Z,14.90
2018-12-10T02:55:18.763Z,12.80
2018-12-10T02:56:18.757Z,13.70
2018-12-10T02:57:18.749Z,14.50
2018-12-10T02:58:18.737Z,14.40
2018-12-10T02:59:18.732Z,12.80
2018-12-10T03:00:18.720Z,17.10
2018-12-10T03:01:18.714Z,11.60
2018-12-10T03:02:18.704Z,15.30
2018-12-10T03:03:18.692Z,15.40
2018-12-10T03:04:18.690Z,12.50
2018-12-10T03:05:18.675Z,13.60
2018-12-10T03:06:18.669Z,14.70
2018-12-10T03:07:18.666Z,16.40
2018-12-10T03:08:18.661Z,12.60
2018-12-10T03:09:18.645Z,11.20
2018-12-10T03:10:18.634Z,13.70
2018-12-10T03:11:18.624Z,11.90
2018-12-10T03:12:18.620Z,13.00
2018-12-10T03:13:18.610Z,13.90
2018-12-10T03:14:18.602Z,13.50
2018-12-10T03:15:18.621Z,16.50
2018-12-10T03:16:18.619Z,11.30
2018-12-10T03:17:18.581Z,13.50
2018-12-10T03:18:18.565Z,13.10
2018-12-10T03:19:18.560Z,14.00
2018-12-10T03:20:18.551Z,12.30
2018-12-10T03:21:18.543Z,11.60
2018-12-10T03:22:18.528Z,13.50
2018-12-10T03:23:18.521Z,8.60
2018-12-10T03:24:18.510Z,11.90
2018-12-10T03:25:18.504Z,13.40
2018-12-10T03:26:18.493Z,14.10
2018-12-10T03:27:18.484Z,11.10
2018-12-10T03:28:18.483Z,10.20
2018-12-10T03:29:18.470Z,12.80
2018-12-10T03:30:18.471Z,14.50
2018-12-10T03:31:18.452Z,13.40
2018-12-10T03:32:18.449Z,12.20
2018-12-10T03:33:18.437Z,12.40
2018-12-10T03:34:18.427Z,13.70
2018-12-10T03:35:18.423Z,12.00
2018-12-10T03:36:18.537Z,10.60
2018-12-10T03:37:18.400Z,11.30
2018-12-10T03:38:18.393Z,11.50
2018-12-10T03:39:18.384Z,11.20
2018-12-10T03:40:18.378Z,10.00
2018-12-10T03:41:18.366Z,10.20
2018-12-10T03:42:18.356Z,12.70
2018-12-10T03:43:18.345Z,8.60
2018-12-10T03:44:18.338Z,11.40
2018-12-10T03:45:18.329Z,11.00
2018-12-10T03:46:18.325Z,12.50
2018-12-10T03:47:18.311Z,11.50
2018-12-10T03:48:18.305Z,10.60
2018-12-10T03:49:18.365Z,10.50
2018-12-10T03:50:18.286Z,10.80
2018-12-10T03:51:19.231Z,10.20
2018-12-10T03:52:18.274Z,12.90
2018-12-10T03:53:18.263Z,10.10
2018-12-10T03:54:18.252Z,10.00
2018-12-10T03:55:18.242Z,7.70
2018-12-10T03:56:18.235Z,9.70
2018-12-10T03:57:18.227Z,9.80
2018-12-10T03:58:18.219Z,10.90
2018-12-10T03:59:18.214Z,9.80
2018-12-10T04:00:18.200Z,11.10
2018-12-10T04:01:18.195Z,11.10
2018-12-10T04:02:18.186Z,11.00
2018-12-10T04:03:18.177Z,10.40
2018-12-10T04:04:18.168Z,10.40
2018-12-10T04:05:18.157Z,8.00
2018-12-10T04:06:18.151Z,9.30
2018-12-10T04:07:18.140Z,9.10
2018-12-10T04:08:18.133Z,10.10
2018-12-10T04:09:18.124Z,8.60
2018-12-10T04:10:18.115Z,9.80
2018-12-10T04:11:18.107Z,8.70
2018-12-10T04:12:18.108Z,10.00
2018-12-10T04:13:18.096Z,7.60
2018-12-10T04:14:18.076Z,10.30
2018-12-10T04:15:18.073Z,10.10
2018-12-10T04:16:18.065Z,8.80
2018-12-10T04:17:18.054Z,9.30
2018-12-10T04:18:18.046Z,8.70
2018-12-10T04:19:18.035Z,10.60
2018-12-10T04:20:18.030Z,10.20
2018-12-10T04:21:18.020Z,9.90
2018-12-10T04:22:18.011Z,10.00
2018-12-10T04:23:18.010Z,9.80
2018-12-10T04:24:18.030Z,9.80
2018-12-10T04:25:17.986Z,9.10
2018-12-10T04:26:17.976Z,10.50
2018-12-10T04:27:17.972Z,8.80
2018-12-10T04:28:17.959Z,10.50
2018-12-10T04:29:17.951Z,11.30
2018-12-10T04:30:17.946Z,9.30
2018-12-10T04:31:17.931Z,11.00
2018-12-10T04:32:17.925Z,9.70
2018-12-10T04:33:17.917Z,9.20
2018-12-10T04:34:17.906Z,8.80
2018-12-10T04:35:17.904Z,9.10
2018-12-10T04:36:17.892Z,10.30
2018-12-10T04:37:17.881Z,6.90
2018-12-10T04:38:17.871Z,9.70
2018-12-10T04:39:17.864Z,9.50
2018-12-10T04:40:17.855Z,9.50
2018-12-10T04:41:17.846Z,9.10
2018-12-10T04:42:17.837Z,10.40
2018-12-10T04:43:17.826Z,8.60
2018-12-10T04:44:17.822Z,11.10
2018-12-10T04:45:17.811Z,10.20
2018-12-10T04:46:17.802Z,11.80
2018-12-10T04:47:17.794Z,8.80
2018-12-10T04:48:17.782Z,8.20
2018-12-10T04:49:17.775Z,9.20
2018-12-10T04:50:17.766Z,9.80
2018-12-10T04:51:17.757Z,8.30
2018-12-10T04:52:17.749Z,10.90
2018-12-10T04:53:17.740Z,12.20
2018-12-10T04:54:17.736Z,10.20
2018-12-10T04:55:17.722Z,10.20
2018-12-10T04:56:17.714Z,9.20
2018-12-10T04:57:17.705Z,9.80
2018-12-10T04:58:17.695Z,10.70
2018-12-10T04:59:17.690Z,9.60
2018-12-10T05:00:17.679Z,8.80
2018-12-10T05:01:17.677Z,9.50
2018-12-10T05:02:17.661Z,11.00
2018-12-10T05:03:17.654Z,12.10
2018-12-10T05:04:17.645Z,8.00
2018-12-10T05:05:17.636Z,9.50
2018-12-10T05:06:17.626Z,11.30
2018-12-10T05:07:17.617Z,9.90
2018-12-10T05:08:17.611Z,9.40
2018-12-10T05:09:17.603Z,11.80
2018-12-10T05:10:17.592Z,8.60
2018-12-10T05:11:17.586Z,7.90
2018-12-10T05:12:17.576Z,8.60
2018-12-10T05:13:17.566Z,9.80
2018-12-10T05:14:17.556Z,12.00
2018-12-10T05:15:17.550Z,8.50
2018-12-10T05:16:17.542Z,11.30
2018-12-10T05:17:17.532Z,10.20
2018-12-10T05:18:17.527Z,8.20
2018-12-10T05:19:17.512Z,10.70
2018-12-10T05:20:17.506Z,12.50
2018-12-10T05:21:17.497Z,10.90
2018-12-10T05:22:17.484Z,9.70
2018-12-10T05:23:17.482Z,8.60
2018-12-10T05:24:17.467Z,9.40
2018-12-10T05:25:17.462Z,9.90
2018-12-10T05:26:17.452Z,9.90
2018-12-10T05:27:17.443Z,7.60
2018-12-10T05:28:17.437Z,9.20
2018-12-10T05:29:17.426Z,8.00
2018-12-10T05:30:17.421Z,8.20
2018-12-10T05:31:17.410Z,10.90
2018-12-10T05:32:17.409Z,8.40
2018-12-10T05:33:17.394Z,11.00
2018-12-10T05:34:17.382Z,8.20
2018-12-10T05:35:17.386Z,10.50
2018-12-10T05:36:17.366Z,7.90
2018-12-10T05:37:17.359Z,10.40
2018-12-10T05:38:17.346Z,8.20
2018-12-10T05:39:18.182Z,8.80
2018-12-10T05:40:17.332Z,8.30
2018-12-10T05:41:17.324Z,9.50
2018-12-10T05:42:17.312Z,7.20
2018-12-10T05:43:17.303Z,10.40
2018-12-10T05:44:17.295Z,8.20
2018-12-10T05:45:17.287Z,8.50
2018-12-10T05:46:17.279Z,8.70
2018-12-10T05:47:17.272Z,9.60
2018-12-10T05:48:17.257Z,8.70
2018-12-10T05:49:17.254Z,9.80
2018-12-10T05:50:17.244Z,9.20
2018-12-10T05:51:17.236Z,10.70
2018-12-10T05:52:17.227Z,9.70
2018-12-10T05:53:17.214Z,9.00
2018-12-10T05:54:17.208Z,10.20
2018-12-10T05:55:17.233Z,8.20
2018-12-10T05:56:17.191Z,9.60
2018-12-10T05:57:17.181Z,9.80
2018-12-10T05:58:17.786Z,9.30
2018-12-10T05:59:17.170Z,8.10
2018-12-10T06:00:17.153Z,9.10
2018-12-10T06:01:17.148Z,10.10
2018-12-10T06:02:17.138Z,12.80
2018-12-10T06:03:17.135Z,10.20
2018-12-10T06:04:17.123Z,9.20
2018-12-10T06:05:17.117Z,8.20
2018-12-10T06:06:17.105Z,10.70
2018-12-10T06:07:17.094Z,10.50
2018-12-10T06:08:17.086Z,8.70
2018-12-10T06:09:17.078Z,8.10
2018-12-10T06:10:17.069Z,8.80
2018-12-10T06:11:17.063Z,10.00
2018-12-10T06:12:17.053Z,10.30
2018-12-10T06:13:17.045Z,10.00
2018-12-10T06:14:17.035Z,10.40
2018-12-10T06:15:17.025Z,9.50
2018-12-10T06:16:17.020Z,8.90
2018-12-10T06:17:17.009Z,10.30
2018-12-10T06:18:16.999Z,10.20
2018-12-10T06:19:16.990Z,10.10
2018-12-10T06:20:16.985Z,11.00
2018-12-10T06:21:16.972Z,8.00
2018-12-10T06:22:16.964Z,9.20
2018-12-10T06:23:16.959Z,7.60
2018-12-10T06:24:16.945Z,8.40
2018-12-10T06:25:16.944Z,6.40
2018-12-10T06:26:16.926Z,8.00
2018-12-10T06:27:16.915Z,8.40
2018-12-10T06:28:16.912Z,9.00
2018-12-10T06:29:16.904Z,8.40
2018-12-10T06:30:16.894Z,8.80
2018-12-10T06:31:16.884Z,7.70
2018-12-10T06:32:16.877Z,8.10
2018-12-10T06:33:16.867Z,6.50
2018-12-10T06:34:16.858Z,7.30
2018-12-10T06:35:16.848Z,6.80
2018-12-10T06:36:16.843Z,7.10
2018-12-10T06:37:16.833Z,6.70
2018-12-10T06:38:16.824Z,7.60
2018-12-10T06:39:16.813Z,6.70
2018-12-10T06:40:16.809Z,7.60
2018-12-10T06:41:16.795Z,7.90
2018-12-10T06:42:16.788Z,6.80
2018-12-10T06:43:16.777Z,5.20
2018-12-10T06:44:16.772Z,7.10
2018-12-10T06:45:16.763Z,6.00
2018-12-10T06:46:16.753Z,4.40
2018-12-10T06:47:16.748Z,6.50
2018-12-10T06:48:16.733Z,7.10
2018-12-10T06:49:16.750Z,7.60
2018-12-10T06:50:16.718Z,5.90
2018-12-10T06:51:16.709Z,6.90
2018-12-10T06:52:16.702Z,7.00
2018-12-10T06:53:16.688Z,5.30
2018-12-10T06:54:16.681Z,7.00
2018-12-10T06:55:16.703Z,8.40
2018-12-10T06:56:16.665Z,5.70
2018-12-10T06:57:16.659Z,10.20
2018-12-10T06:58:16.645Z,5.70
2018-12-10T06:59:16.638Z,6.90
2018-12-10T07:00:16.628Z,4.80
2018-12-10T07:01:16.620Z,6.30
2018-12-10T07:02:16.611Z,5.30
2018-12-10T07:03:16.604Z,4.30
2018-12-10T07:04:16.598Z,6.90
2018-12-10T07:05:16.585Z,4.40
2018-12-10T07:06:16.573Z,5.60
2018-12-10T07:07:16.566Z,5.00
2018-12-10T07:08:16.557Z,3.60
2018-12-10T07:09:16.561Z,6.00
2018-12-10T07:10:16.539Z,5.20
2018-12-10T07:11:16.532Z,6.10
2018-12-10T07:12:16.522Z,6.70
2018-12-10T07:13:16.513Z,7.50
2018-12-10T07:14:16.509Z,7.40
2018-12-10T07:15:16.494Z,8.40
2018-12-10T07:16:16.485Z,5.50
2018-12-10T07:17:16.476Z,4.20
2018-12-10T07:18:16.467Z,5.50
2018-12-10T07:19:16.460Z,6.30
2018-12-10T07:20:16.447Z,7.60
2018-12-10T07:21:16.441Z,7.00
2018-12-10T07:22:16.430Z,7.80
2018-12-10T07:23:16.421Z,8.80
2018-12-10T07:24:16.419Z,6.90
2018-12-10T07:25:16.403Z,8.30
2018-12-10T07:26:16.398Z,6.70
2018-12-10T07:27:16.385Z,5.60
2018-12-10T07:28:16.378Z,6.90
2018-12-10T07:29:16.374Z,6.20
2018-12-10T07:30:16.360Z,6.50
2018-12-10T07:31:16.347Z,7.00
2018-12-10T07:32:16.342Z,6.50
2018-12-10T07:33:16.334Z,5.40
2018-12-10T07:34:16.327Z,8.40
2018-12-10T07:35:16.310Z,9.90
2018-12-10T07:36:16.309Z,8.00
2018-12-10T07:37:16.297Z,7.90
2018-12-10T07:38:16.288Z,8.10
2018-12-10T07:39:16.279Z,8.10
2018-12-10T07:40:16.269Z,8.20
2018-12-10T07:41:16.258Z,8.90
2018-12-10T07:42:16.248Z,8.80
2018-12-10T07:43:16.241Z,6.80
2018-12-10T07:44:16.254Z,8.20
2018-12-10T07:45:16.223Z,9.50
2018-12-10T07:46:16.214Z,7.80
2018-12-10T07:47:16.204Z,10.90
2018-12-10T07:48:16.198Z,7.70
2018-12-10T07:49:16.188Z,8.30
2018-12-10T07:50:16.175Z,10.10
2018-12-10T07:51:16.167Z,10.20
2018-12-10T07:52:16.157Z,9.60
2018-12-10T07:53:16.150Z,9.50
2018-12-10T07:54:16.143Z,10.50
2018-12-10T07:55:16.213Z,9.70
2018-12-10T07:56:16.123Z,12.90
2018-12-10T07:57:16.110Z,9.70
2018-12-10T07:58:16.103Z,10.30
2018-12-10T07:59:16.099Z,9.30
2018-12-10T08:00:16.085Z,10.80
2018-12-10T08:01:16.087Z,10.40
2018-12-10T08:02:16.118Z,11.40
2018-12-10T08:03:16.058Z,11.40
2018-12-10T08:04:16.051Z,10.60
2018-12-10T08:05:16.040Z,11.90
2018-12-10T08:06:16.030Z,9.90
2018-12-10T08:07:16.020Z,12.20
2018-12-10T08:08:16.012Z,9.70
2018-12-10T08:09:16.008Z,11.60
2018-12-10T08:10:15.993Z,10.80
2018-12-10T08:11:15.992Z,10.20
2018-12-10T08:12:15.977Z,12.80
2018-12-10T08:13:15.969Z,10.90
2018-12-10T08:14:15.958Z,11.50
2018-12-10T08:15:15.950Z,10.40
2018-12-10T08:16:16.096Z,10.40
2018-12-10T08:17:15.934Z,8.40
2018-12-10T08:18:15.923Z,10.50
2018-12-10T08:19:15.914Z,9.80
2018-12-10T08:20:15.908Z,8.30
2018-12-10T08:21:15.900Z,9.10
2018-12-10T08:22:15.888Z,9.70
2018-12-10T08:23:15.881Z,10.40
2018-12-10T08:24:15.873Z,10.40
2018-12-10T08:25:15.863Z,8.90
2018-12-10T08:26:15.854Z,10.00
2018-12-10T08:27:15.844Z,7.60
2018-12-10T08:28:15.834Z,8.80
2018-12-10T08:29:15.826Z,10.00
2018-12-10T08:30:15.816Z,9.10
2018-12-10T08:31:15.808Z,9.00
2018-12-10T08:32:15.796Z,9.50
2018-12-10T08:33:15.789Z,11.10
2018-12-10T08:34:15.777Z,9.90
2018-12-10T08:35:15.771Z,10.60
2018-12-10T08:36:15.762Z,12.60
2018-12-10T08:37:15.755Z,12.60
2018-12-10T08:38:15.750Z,11.30
2018-12-10T08:39:15.787Z,9.50
2018-12-10T08:40:15.793Z,11.70
2018-12-10T08:41:15.718Z,8.20
2018-12-10T08:42:15.710Z,9.10
2018-12-10T08:43:15.702Z,10.60
2018-12-10T08:44:15.692Z,11.30
2018-12-10T08:45:15.693Z,9.80
2018-12-10T08:46:15.676Z,9.50
2018-12-10T08:47:16.400Z,10.60
2018-12-10T08:48:15.659Z,10.40
2018-12-10T08:49:15.645Z,8.60
2018-12-10T08:50:15.638Z,9.70
2018-12-10T08:51:15.665Z,9.90
2018-12-10T08:52:15.619Z,10.20
2018-12-10T08:53:15.613Z,8.70
2018-12-10T08:54:15.602Z,10.30
2018-12-10T08:55:15.595Z,10.30
2018-12-10T08:56:15.582Z,10.00
2018-12-10T08:57:15.758Z,9.80
2018-12-10T08:58:15.575Z,10.20
2018-12-10T08:59:15.560Z,10.30
2018-12-10T09:00:15.554Z,6.70
2018-12-10T09:01:15.536Z,9.50
2018-12-10T09:02:15.529Z,8.00
2018-12-10T09:03:15.522Z,6.50
2018-12-10T09:04:15.510Z,8.60
2018-12-10T09:05:15.507Z,8.60
2018-12-10T09:06:15.492Z,7.00
2018-12-10T09:07:15.486Z,9.40
2018-12-10T09:08:15.476Z,9.00
2018-12-10T09:09:15.463Z,7.90
2018-12-10T09:10:15.458Z,9.80
2018-12-10T09:11:15.449Z,7.60
2018-12-10T09:12:15.440Z,8.70
2018-12-10T09:13:15.429Z,8.70
2018-12-10T09:14:15.422Z,7.70
2018-12-10T09:15:15.416Z,9.40
2018-12-10T09:16:15.401Z,7.90
2018-12-10T09:17:15.395Z,12.10
2018-12-10T09:18:15.385Z,10.00
2018-12-10T09:19:15.375Z,8.80
2018-12-10T09:20:15.380Z,9.40
2018-12-10T09:21:15.360Z,8.60
2018-12-10T09:22:15.351Z,7.40
2018-12-10T09:23:15.340Z,10.70
2018-12-10T09:24:15.333Z,10.20
2018-12-10T09:25:15.330Z,8.90
2018-12-10T09:26:15.311Z,8.40
2018-12-10T09:27:15.310Z,11.70
2018-12-10T09:28:19.472Z,12.10
2018-12-10T09:29:16.224Z,10.00
2018-12-10T09:30:15.277Z,7.30
2018-12-10T09:31:15.272Z,8.80
2018-12-10T09:32:15.266Z,12.40
2018-12-10T09:33:15.255Z,10.60
2018-12-10T09:34:15.244Z,8.70
2018-12-10T09:35:15.295Z,8.30
2018-12-10T09:36:15.233Z,9.80
2018-12-10T09:37:15.221Z,9.90
2018-12-10T09:38:15.211Z,9.10
2018-12-10T09:39:15.205Z,8.10
2018-12-10T09:40:15.192Z,7.50
2018-12-10T09:41:15.186Z,10.40
2018-12-10T09:42:15.174Z,8.40
2018-12-10T09:43:15.162Z,10.10
2018-12-10T09:44:15.157Z,10.70
2018-12-10T09:45:15.149Z,7.90
2018-12-10T09:46:15.140Z,7.60
2018-12-10T09:47:15.132Z,9.30
2018-12-10T09:48:15.121Z,9.10
2018-12-10T09:49:15.114Z,8.00
2018-12-10T09:50:15.101Z,9.80
2018-12-10T09:51:15.095Z,7.60
2018-12-10T09:52:15.087Z,9.40
2018-12-10T09:53:15.078Z,7.60
2018-12-10T09:54:15.067Z,8.50
2018-12-10T09:55:15.059Z,8.30
2018-12-10T09:56:15.056Z,8.10
2018-12-10T09:57:15.041Z,9.60
2018-12-10T09:58:15.035Z,9.80
2018-12-10T09:59:15.025Z,8.70
2018-12-10T10:00:15.015Z,9.70
2018-12-10T10:01:15.010Z,9.80
2018-12-10T10:02:15.002Z,8.50
2018-12-10T10:03:14.990Z,8.90
2018-12-10T10:04:14.981Z,10.10
2018-12-10T10:05:14.974Z,8.50
2018-12-10T10:06:14.965Z,7.90
2018-12-10T10:07:14.955Z,8.30
2018-12-10T10:08:14.945Z,8.00
2018-12-10T10:09:14.938Z,8.00
2018-12-10T10:10:14.931Z,9.50
2018-12-10T10:11:14.919Z,9.90
2018-12-10T10:12:14.912Z,7.50
2018-12-10T10:13:14.907Z,8.30
2018-12-10T10:14:14.894Z,8.00
2018-12-10T10:15:14.885Z,9.20
2018-12-10T10:16:14.876Z,6.60
2018-12-10T10:17:14.868Z,10.30
2018-12-10T10:18:14.861Z,9.90
2018-12-10T10:19:14.852Z,9.90
2018-12-10T10:20:14.889Z,8.90
2018-12-10T10:21:14.833Z,8.40
2018-12-10T10:22:14.828Z,9.40
2018-12-10T10:23:14.818Z,9.20
2018-12-10T10:24:14.809Z,8.20
2018-12-10T10:25:14.801Z,8.80
2018-12-10T10:26:14.791Z,10.40
2018-12-10T10:27:14.788Z,8.60
2018-12-10T10:28:14.775Z,10.40
2018-12-10T10:29:14.766Z,10.50
2018-12-10T10:30:14.755Z,10.30
2018-12-10T10:31:14.749Z,10.60
2018-12-10T10:32:14.743Z,10.80
2018-12-10T10:33:14.731Z,11.60
2018-12-10T10:34:14.729Z,10.50
2018-12-10T10:35:14.713Z,9.90
2018-12-10T10:36:14.706Z,7.30
2018-12-10T10:37:14.697Z,10.80
2018-12-10T10:38:15.235Z,9.80
2018-12-10T10:39:14.680Z,9.00
2018-12-10T10:40:14.674Z,8.00
2018-12-10T10:41:14.664Z,8.30
2018-12-10T10:42:14.654Z,9.30
2018-12-10T10:43:14.645Z,12.60
2018-12-10T10:44:14.638Z,10.20
2018-12-10T10:45:14.629Z,8.50
2018-12-10T10:46:14.621Z,10.50
2018-12-10T10:47:14.611Z,11.10
2018-12-10T10:48:14.603Z,9.60
2018-12-10T10:49:14.596Z,9.20
2018-12-10T10:50:14.587Z,11.50
2018-12-10T10:51:14.581Z,11.60
2018-12-10T10:52:14.570Z,9.80
2018-12-10T10:53:14.562Z,11.40
2018-12-10T10:54:14.549Z,9.80
2018-12-10T10:55:14.545Z,8.90
2018-12-10T10:56:14.535Z,7.00
2018-12-10T10:57:14.528Z,10.40
2018-12-10T10:58:14.524Z,10.90
2018-12-10T10:59:14.526Z,9.00
2018-12-10T11:00:14.501Z,10.50
2018-12-10T11:01:14.495Z,11.90
2018-12-10T11:02:14.484Z,11.70
2018-12-10T11:03:14.475Z,9.20
2018-12-10T11:04:14.479Z,11.60
2018-12-10T11:05:14.463Z,10.90
2018-12-10T11:06:14.459Z,10.70
2018-12-10T11:07:14.444Z,12.90
2018-12-10T11:08:14.434Z,12.70
2018-12-10T11:09:15.589Z,9.30
2018-12-10T11:10:14.416Z,13.10
2018-12-10T11:11:14.410Z,10.90
2018-12-10T11:12:14.407Z,11.70
2018-12-10T11:13:14.391Z,9.10
2018-12-10T11:14:14.384Z,9.50
2018-12-10T11:15:14.373Z,9.10
2018-12-10T11:16:14.368Z,11.20
2018-12-10T11:17:14.359Z,10.80
2018-12-10T11:18:14.349Z,11.20
2018-12-10T11:19:14.344Z,10.20
2018-12-10T11:20:14.332Z,8.80
2018-12-10T11:21:14.326Z,8.00
2018-12-10T11:22:14.314Z,10.30
2018-12-10T11:23:14.307Z,9.60
2018-12-10T11:24:14.300Z,8.00
2018-12-10T11:25:14.292Z,9.20
2018-12-10T11:26:14.285Z,10.40
2018-12-10T11:27:14.275Z,11.70
2018-12-10T11:28:14.269Z,10.70
2018-12-10T11:29:14.256Z,10.20
2018-12-10T11:30:14.249Z,12.60
2018-12-10T11:31:17.309Z,8.90
2018-12-10T11:32:14.235Z,8.40
2018-12-10T11:33:14.225Z,9.30
2018-12-10T11:34:14.213Z,9.70
2018-12-10T11:35:14.208Z,10.10
2018-12-10T11:36:14.201Z,8.80
2018-12-10T11:37:14.743Z,10.90
2018-12-10T11:38:14.184Z,10.10
2018-12-10T11:39:14.175Z,10.70
2018-12-10T11:40:14.175Z,8.40
2018-12-10T11:41:14.162Z,8.10
2018-12-10T11:42:14.150Z,9.40
2018-12-10T11:43:14.140Z,10.30
2018-12-10T11:44:14.133Z,9.30
2018-12-10T11:45:14.127Z,10.30
2018-12-10T11:46:14.116Z,8.60
2018-12-10T11:47:14.108Z,5.60
2018-12-10T11:48:14.098Z,11.30
2018-12-10T11:49:14.094Z,10.80
2018-12-10T11:50:14.207Z,8.30
2018-12-10T11:51:14.072Z,9.00
2018-12-10T11:52:14.066Z,11.10
2018-12-10T11:53:14.056Z,10.80
2018-12-10T11:54:14.049Z,9.00
2018-12-10T11:55:14.040Z,10.20
2018-12-10T11:56:14.031Z,9.30
2018-12-10T11:57:14.023Z,8.90
2018-12-10T11:58:14.014Z,8.90
2018-12-10T11:59:14.007Z,8.50
2018-12-10T12:00:13.996Z,9.80
2018-12-10T12:01:13.998Z,9.40
2018-12-10T12:02:13.979Z,9.70
2018-12-10T12:03:13.971Z,6.70
2018-12-10T12:04:13.986Z,9.50
2018-12-10T12:05:13.955Z,9.50
2018-12-10T12:06:13.948Z,8.50
2018-12-10T12:07:13.936Z,10.00
2018-12-10T12:08:13.939Z,10.30
2018-12-10T12:09:13.918Z,10.60
2018-12-10T12:10:13.914Z,8.10
2018-12-10T12:11:13.906Z,8.20
2018-12-10T12:12:13.894Z,10.60
2018-12-10T12:13:13.886Z,9.80
2018-12-10T12:14:13.877Z,9.10
2018-12-10T12:15:13.873Z,7.60
2018-12-10T12:16:13.860Z,8.80
2018-12-10T12:17:13.853Z,8.30
2018-12-10T12:18:13.842Z,10.70
2018-12-10T12:19:13.836Z,9.10
2018-12-10T12:20:13.829Z,11.60
2018-12-10T12:21:13.816Z,10.00
2018-12-10T12:22:13.813Z,7.70
2018-12-10T12:23:13.799Z,8.10
2018-12-10T12:24:13.791Z,11.20
2018-12-10T12:25:13.783Z,9.00
2018-12-10T12:26:13.773Z,8.10
2018-12-10T12:27:13.768Z,10.10
2018-12-10T12:28:13.757Z,6.90
2018-12-10T12:29:13.747Z,7.10
2018-12-10T12:30:13.739Z,9.30
2018-12-10T12:31:13.732Z,8.90
2018-12-10T12:32:13.729Z,11.10
2018-12-10T12:33:13.717Z,8.10
2018-12-10T12:34:13.706Z,10.80
2018-12-10T12:35:13.699Z,10.60
2018-12-10T12:36:13.690Z,8.70
2018-12-10T12:37:13.682Z,8.50
2018-12-10T12:38:13.675Z,7.70
2018-12-10T12:39:13.663Z,9.40
2018-12-10T12:40:13.657Z,9.10
2018-12-10T12:41:14.923Z,8.00
2018-12-10T12:42:13.639Z,6.60
2018-12-10T12:43:16.281Z,5.30
2018-12-10T12:44:13.622Z,6.60
2018-12-10T12:45:13.611Z,6.30
2018-12-10T12:46:13.609Z,7.20
2018-12-10T12:47:13.595Z,6.90
2018-12-10T12:48:13.588Z,10.10
2018-12-10T12:49:13.575Z,7.60
2018-12-10T12:50:13.569Z,10.20
2018-12-10T12:51:13.561Z,7.30
2018-12-10T12:52:13.553Z,8.10
2018-12-10T12:53:13.547Z,9.30
2018-12-10T12:54:13.538Z,6.30
2018-12-10T12:55:13.544Z,9.10
2018-12-10T12:56:13.519Z,7.20
2018-12-10T12:57:13.509Z,7.30
2018-12-10T12:58:13.502Z,7.90
2018-12-10T12:59:13.494Z,9.10
2018-12-10T13:00:13.487Z,8.60
2018-12-10T13:01:13.473Z,8.30
2018-12-10T13:02:13.469Z,8.50
2018-12-10T13:03:13.460Z,6.90
2018-12-10T13:04:13.451Z,8.30
2018-12-10T13:05:13.442Z,6.60